Aviation Digital Data Service (ADDS)

Output produced by METARs form (0756 UTC 18 February 2019)
found at http://www.aviationweather.gov/metar/data/
 
Forecast for: KDFW (DALLAS/FT WORTH , TX, US)
Text: KDFW 180525Z 1806/1912 03011KT P6SM BKN200
Forecast period: 0600 UTC 18 February 2019 to 0600 UTC 19 February 2019
Forecast type: FROM: standard forecast or significant change
Winds: from the NNE (30 degrees) at 13 MPH (11 knots; 5.7 m/s)
Visibility: 6 or more miles 10+ km)
Ceiling: 20000 feet AGL
Clouds: broken clouds at 20000 feet AGL
Weather: no significant weather forecast for this period
Text: FM190600 06013KT P6SM OVC050
Forecast period: 0600 to 1100 UTC 19 February 2019
Forecast type: FROM: standard forecast or significant change
Winds: from the ENE (60 degrees) at 15 MPH (13 knots; 6.7 m/s)
Visibility: 6 or more miles 10+ km)
Ceiling: 5000 feet AGL
Clouds: overcast cloud deck at 5000 feet AGL
Weather: no significant weather forecast for this period
Text: FM191100 06012KT P6SM VCSH OVC030
Forecast period: 1100 to 1200 UTC 19 February 2019
Forecast type: FROM: standard forecast or significant change
Winds: from the ENE (60 degrees) at 14 MPH (12 knots; 6.2 m/s)
Visibility: 6 or more miles 10+ km)
Ceiling: 3000 feet AGL
Clouds: overcast cloud deck at 3000 feet AGL
Weather: VCSH  (showers in vicinity)